Prestwick, United Kingdom
Current Conditions -  °F | °C
As of 4:50 AM on Monday 29 Dec 2014 (Local Time) from EGPK Reporting Station
Few Clouds Few Clouds  
Wind Chill: -1°   Ceiling: Unl
Heat Index: -1°   Visibility: 6mi
Dew Point: -1°   Wind: 2mph
Humidity: 100%   Direction: NA
Pressure: 30.65"   Gusts: NA
Location:  55.48°N, 4.62°W
Report Text: EGPK 290450Z VRB02KT 9999 FEW030 M01/M01 Q1038
Loading
Personal Weather Stations






























Interactive Weather Map New forecast layout! Learn more

10-Day Weather Forecast

Advertisements
Track Severe Weather on mobile